sensor_id;sensor_type;location;lat;lon;timestamp;pressure;altitude;pressure_sealevel;temperature;humidity
11085;BME280;5596;46.826;8.650;2023-04-05T00:00:57;96524.09;;;3.41;100.00
11085;BME280;5596;46.826;8.650;2023-04-05T00:03:25;96524.38;;;3.47;100.00
11085;BME280;5596;46.826;8.650;2023-04-05T00:05:53;96525.66;;;3.51;100.00
11085;BME280;5596;46.826;8.650;2023-04-05T00:08:19;96524.31;;;3.55;100.00
11085;BME280;5596;46.826;8.650;2023-04-05T00:10:50;96524.84;;;3.50;100.00
11085;BME280;5596;46.826;8.650;2023-04-05T00:13:18;96529.16;;;3.51;100.00
11085;BME280;5596;46.826;8.650;2023-04-05T00:15:45;96528.91;;;3.46;100.00
11085;BME280;5596;46.826;8.650;2023-04-05T00:18:12;96528.13;;;3.37;100.00
11085;BME280;5596;46.826;8.650;2023-04-05T00:20:47;96524.34;;;3.32;100.00
11085;BME280;5596;46.826;8.650;2023-04-05T00:23:14;96515.41;;;3.25;100.00
11085;BME280;5596;46.826;8.650;2023-04-05T00:25:42;96524.19;;;3.11;100.00
11085;BME280;5596;46.826;8.650;2023-04-05T00:28:09;96518.94;;;3.02;100.00
11085;BME280;5596;46.826;8.650;2023-04-05T00:30:35;96518.94;;;3.02;100.00
11085;BME280;5596;46.826;8.650;2023-04-05T00:33:02;96517.44;;;3.00;100.00
11085;BME280;5596;46.826;8.650;2023-04-05T00:35:29;96512.22;;;3.07;100.00
11085;BME280;5596;46.826;8.650;2023-04-05T00:37:57;96517.38;;;3.08;100.00
11085;BME280;5596;46.826;8.650;2023-04-05T00:40:24;96517.38;;;3.08;100.00
11085;BME280;5596;46.826;8.650;2023-04-05T00:42:51;96512.88;;;3.09;100.00
11085;BME280;5596;46.826;8.650;2023-04-05T00:45:18;61776.25;;;-141.59;100.00
11085;BME280;5596;46.826;8.650;2023-04-05T00:47:45;61776.25;;;-141.59;100.00
11085;BME280;5596;46.826;8.650;2023-04-05T00:50:12;61776.25;;;-141.59;100.00
11085;BME280;5596;46.826;8.650;2023-04-05T00:52:40;61776.25;;;-141.59;100.00
11085;BME280;5596;46.826;8.650;2023-04-05T00:55:08;61776.25;;;-141.59;100.00
11085;BME280;5596;46.826;8.650;2023-04-05T00:57:36;61776.25;;;-141.59;100.00
11085;BME280;5596;46.826;8.650;2023-04-05T01:00:05;61776.25;;;-141.59;100.00
11085;BME280;5596;46.826;8.650;2023-04-05T01:02:34;61776.25;;;-141.59;100.00
11085;BME280;5596;46.826;8.650;2023-04-05T01:05:05;61776.25;;;-141.59;100.00
11085;BME280;5596;46.826;8.650;2023-04-05T01:07:35;61776.25;;;-141.59;100.00
11085;BME280;5596;46.826;8.650;2023-04-05T01:10:04;61776.25;;;-141.59;100.00
11085;BME280;5596;46.826;8.650;2023-04-05T01:12:33;61776.25;;;-141.59;100.00
11085;BME280;5596;46.826;8.650;2023-04-05T01:15:02;61776.25;;;-141.59;100.00
11085;BME280;5596;46.826;8.650;2023-04-05T01:17:30;61776.25;;;-141.59;100.00
11085;BME280;5596;46.826;8.650;2023-04-05T01:20:02;61776.25;;;-141.59;100.00
11085;BME280;5596;46.826;8.650;2023-04-05T01:28:31;61776.25;;;-141.59;100.00
11085;BME280;5596;46.826;8.650;2023-04-05T01:31:04;61776.25;;;-141.59;100.00
11085;BME280;5596;46.826;8.650;2023-04-05T01:33:34;61776.25;;;-141.59;100.00
11085;BME280;5596;46.826;8.650;2023-04-05T01:36:02;61776.25;;;-141.59;100.00
11085;BME280;5596;46.826;8.650;2023-04-05T01:38:32;61776.25;;;-141.59;100.00
11085;BME280;5596;46.826;8.650;2023-04-05T01:41:03;61776.25;;;-141.59;100.00
11085;BME280;5596;46.826;8.650;2023-04-05T01:43:30;61776.25;;;-141.59;100.00
11085;BME280;5596;46.826;8.650;2023-04-05T01:45:56;61776.25;;;-141.59;100.00
11085;BME280;5596;46.826;8.650;2023-04-05T01:48:25;61776.25;;;-141.59;100.00
11085;BME280;5596;46.826;8.650;2023-04-05T01:50:52;61776.25;;;-141.59;100.00
11085;BME280;5596;46.826;8.650;2023-04-05T01:53:19;61776.25;;;-141.59;100.00
11085;BME280;5596;46.826;8.650;2023-04-05T01:55:46;61776.25;;;-141.59;100.00
11085;BME280;5596;46.826;8.650;2023-04-05T01:58:12;61776.25;;;-141.59;100.00
11085;BME280;5596;46.826;8.650;2023-04-05T02:00:39;61776.25;;;-141.59;100.00
11085;BME280;5596;46.826;8.650;2023-04-05T02:03:06;61776.25;;;-141.59;100.00
11085;BME280;5596;46.826;8.650;2023-04-05T02:05:34;61776.25;;;-141.59;100.00
11085;BME280;5596;46.826;8.650;2023-04-05T02:08:01;61776.25;;;-141.59;100.00
11085;BME280;5596;46.826;8.650;2023-04-05T02:10:28;61776.25;;;-141.59;100.00
11085;BME280;5596;46.826;8.650;2023-04-05T02:12:55;61776.25;;;-141.59;100.00
11085;BME280;5596;46.826;8.650;2023-04-05T02:15:22;61776.25;;;-141.59;100.00
11085;BME280;5596;46.826;8.650;2023-04-05T02:17:48;61776.25;;;-141.59;100.00
11085;BME280;5596;46.826;8.650;2023-04-05T02:20:18;61776.25;;;-141.59;100.00
11085;BME280;5596;46.826;8.650;2023-04-05T02:22:46;61776.25;;;-141.59;100.00
11085;BME280;5596;46.826;8.650;2023-04-05T02:25:13;61776.25;;;-141.59;100.00
11085;BME280;5596;46.826;8.650;2023-04-05T02:27:40;61776.25;;;-141.59;100.00
11085;BME280;5596;46.826;8.650;2023-04-05T02:30:07;61776.25;;;-141.59;100.00
11085;BME280;5596;46.826;8.650;2023-04-05T02:32:34;61776.25;;;-141.59;100.00
11085;BME280;5596;46.826;8.650;2023-04-05T02:35:01;61776.25;;;-141.59;100.00
11085;BME280;5596;46.826;8.650;2023-04-05T02:37:28;61776.25;;;-141.59;100.00
11085;BME280;5596;46.826;8.650;2023-04-05T02:39:56;61776.25;;;-141.59;100.00
11085;BME280;5596;46.826;8.650;2023-04-05T02:42:24;61776.25;;;-141.59;100.00
11085;BME280;5596;46.826;8.650;2023-04-05T02:44:50;61776.25;;;-141.59;100.00
11085;BME280;5596;46.826;8.650;2023-04-05T02:47:19;61776.25;;;-141.59;100.00
11085;BME280;5596;46.826;8.650;2023-04-05T02:49:51;61776.25;;;-141.59;100.00
11085;BME280;5596;46.826;8.650;2023-04-05T02:52:18;61776.25;;;-141.59;100.00
11085;BME280;5596;46.826;8.650;2023-04-05T02:54:46;61776.25;;;-141.59;100.00
11085;BME280;5596;46.826;8.650;2023-04-05T02:57:21;61776.25;;;-141.59;100.00
11085;BME280;5596;46.826;8.650;2023-04-05T02:59:53;61776.25;;;-141.59;100.00
11085;BME280;5596;46.826;8.650;2023-04-05T03:02:20;61776.25;;;-141.59;100.00
11085;BME280;5596;46.826;8.650;2023-04-05T03:04:50;61776.25;;;-141.59;100.00
11085;BME280;5596;46.826;8.650;2023-04-05T03:07:18;61776.25;;;-141.59;100.00
11085;BME280;5596;46.826;8.650;2023-04-05T03:09:47;61776.25;;;-141.59;100.00
11085;BME280;5596;46.826;8.650;2023-04-05T03:12:16;61776.25;;;-141.59;100.00
11085;BME280;5596;46.826;8.650;2023-04-05T03:14:45;61776.25;;;-141.59;100.00
11085;BME280;5596;46.826;8.650;2023-04-05T03:17:15;61776.25;;;-141.59;100.00
11085;BME280;5596;46.826;8.650;2023-04-05T03:19:47;61776.25;;;-141.59;100.00
11085;BME280;5596;46.826;8.650;2023-04-05T03:22:18;61776.25;;;-141.59;100.00
11085;BME280;5596;46.826;8.650;2023-04-05T03:24:46;61776.25;;;-141.59;100.00
11085;BME280;5596;46.826;8.650;2023-04-05T03:27:15;61776.25;;;-141.59;100.00
11085;BME280;5596;46.826;8.650;2023-04-05T03:30:08;61776.25;;;-141.59;100.00
11085;BME280;5596;46.826;8.650;2023-04-05T03:32:40;61776.25;;;-141.59;100.00
11085;BME280;5596;46.826;8.650;2023-04-05T03:35:15;61776.25;;;-141.59;100.00
11085;BME280;5596;46.826;8.650;2023-04-05T03:37:45;61776.25;;;-141.59;100.00
11085;BME280;5596;46.826;8.650;2023-04-05T03:40:12;61776.25;;;-141.59;100.00
11085;BME280;5596;46.826;8.650;2023-04-05T03:42:39;61776.25;;;-141.59;100.00
11085;BME280;5596;46.826;8.650;2023-04-05T03:45:08;61776.25;;;-141.59;100.00
11085;BME280;5596;46.826;8.650;2023-04-05T03:47:35;61776.25;;;-141.59;100.00
11085;BME280;5596;46.826;8.650;2023-04-05T03:50:05;61776.25;;;-141.59;100.00
11085;BME280;5596;46.826;8.650;2023-04-05T03:52:32;61776.25;;;-141.59;100.00
11085;BME280;5596;46.826;8.650;2023-04-05T03:54:59;61776.25;;;-141.59;100.00
11085;BME280;5596;46.826;8.650;2023-04-05T03:57:30;61776.25;;;-141.59;100.00
11085;BME280;5596;46.826;8.650;2023-04-05T04:00:03;61776.25;;;-141.59;100.00
11085;BME280;5596;46.826;8.650;2023-04-05T04:02:42;61776.25;;;-141.59;100.00
11085;BME280;5596;46.826;8.650;2023-04-05T04:05:10;61776.25;;;-141.59;100.00
11085;BME280;5596;46.826;8.650;2023-04-05T04:07:37;61776.25;;;-141.59;100.00
11085;BME280;5596;46.826;8.650;2023-04-05T04:10:06;61776.25;;;-141.59;100.00
11085;BME280;5596;46.826;8.650;2023-04-05T04:12:33;61776.25;;;-141.59;100.00
11085;BME280;5596;46.826;8.650;2023-04-05T04:15:01;61776.25;;;-141.59;100.00
11085;BME280;5596;46.826;8.650;2023-04-05T04:17:43;61776.25;;;-141.59;100.00
11085;BME280;5596;46.826;8.650;2023-04-05T04:20:28;61776.25;;;-141.59;100.00
11085;BME280;5596;46.826;8.650;2023-04-05T04:23:16;61776.25;;;-141.59;100.00
11085;BME280;5596;46.826;8.650;2023-04-05T04:26:09;61776.25;;;-141.59;100.00
11085;BME280;5596;46.826;8.650;2023-04-05T04:28:57;61776.25;;;-141.59;100.00
11085;BME280;5596;46.826;8.650;2023-04-05T04:31:43;61776.25;;;-141.59;100.00
11085;BME280;5596;46.826;8.650;2023-04-05T04:34:34;61776.25;;;-141.59;100.00
11085;BME280;5596;46.826;8.650;2023-04-05T04:37:22;61776.25;;;-141.59;100.00
11085;BME280;5596;46.826;8.650;2023-04-05T04:40:13;61776.25;;;-141.59;100.00
11085;BME280;5596;46.826;8.650;2023-04-05T04:42:55;61776.25;;;-141.59;100.00
11085;BME280;5596;46.826;8.650;2023-04-05T04:45:36;61776.25;;;-141.59;100.00
11085;BME280;5596;46.826;8.650;2023-04-05T04:48:23;61776.25;;;-141.59;100.00
11085;BME280;5596;46.826;8.650;2023-04-05T04:51:10;61776.25;;;-141.59;100.00
11085;BME280;5596;46.826;8.650;2023-04-05T04:53:37;61776.25;;;-141.59;100.00
11085;BME280;5596;46.826;8.650;2023-04-05T04:56:07;61776.25;;;-141.59;100.00
11085;BME280;5596;46.826;8.650;2023-04-05T04:58:34;61776.25;;;-141.59;100.00
11085;BME280;5596;46.826;8.650;2023-04-05T05:01:08;61776.25;;;-141.59;100.00
11085;BME280;5596;46.826;8.650;2023-04-05T05:03:35;61776.25;;;-141.59;100.00
11085;BME280;5596;46.826;8.650;2023-04-05T05:06:03;61776.25;;;-141.59;100.00
11085;BME280;5596;46.826;8.650;2023-04-05T05:08:33;61776.25;;;-141.59;100.00
11085;BME280;5596;46.826;8.650;2023-04-05T05:11:01;61776.25;;;-141.59;100.00
11085;BME280;5596;46.826;8.650;2023-04-05T05:13:32;61776.25;;;-141.59;100.00
11085;BME280;5596;46.826;8.650;2023-04-05T05:15:59;61776.25;;;-141.59;100.00
11085;BME280;5596;46.826;8.650;2023-04-05T05:18:26;61776.25;;;-141.59;100.00
11085;BME280;5596;46.826;8.650;2023-04-05T05:20:53;61776.25;;;-141.59;100.00
11085;BME280;5596;46.826;8.650;2023-04-05T05:23:20;61776.25;;;-141.59;100.00
11085;BME280;5596;46.826;8.650;2023-04-05T05:25:48;61776.25;;;-141.59;100.00
11085;BME280;5596;46.826;8.650;2023-04-05T05:28:14;61776.25;;;-141.59;100.00
11085;BME280;5596;46.826;8.650;2023-04-05T05:30:41;61776.25;;;-141.59;100.00
11085;BME280;5596;46.826;8.650;2023-04-05T05:33:09;61776.25;;;-141.59;100.00
11085;BME280;5596;46.826;8.650;2023-04-05T05:35:35;61776.25;;;-141.59;100.00
11085;BME280;5596;46.826;8.650;2023-04-05T05:38:04;61776.25;;;-141.59;100.00
11085;BME280;5596;46.826;8.650;2023-04-05T05:40:30;61776.25;;;-141.59;100.00
11085;BME280;5596;46.826;8.650;2023-04-05T05:42:59;61776.25;;;-141.59;100.00
11085;BME280;5596;46.826;8.650;2023-04-05T05:45:25;61776.25;;;-141.59;100.00
11085;BME280;5596;46.826;8.650;2023-04-05T05:47:53;61776.25;;;-141.59;100.00
11085;BME280;5596;46.826;8.650;2023-04-05T05:50:20;61776.25;;;-141.59;100.00
11085;BME280;5596;46.826;8.650;2023-04-05T05:52:47;61776.25;;;-141.59;100.00
11085;BME280;5596;46.826;8.650;2023-04-05T05:55:14;61776.25;;;-141.59;100.00
11085;BME280;5596;46.826;8.650;2023-04-05T05:57:41;61776.25;;;-141.59;100.00
11085;BME280;5596;46.826;8.650;2023-04-05T06:00:10;61776.25;;;-141.59;100.00
11085;BME280;5596;46.826;8.650;2023-04-05T06:02:37;61776.25;;;-141.59;100.00
11085;BME280;5596;46.826;8.650;2023-04-05T06:05:06;61776.25;;;-141.59;100.00
11085;BME280;5596;46.826;8.650;2023-04-05T06:07:34;61776.25;;;-141.59;100.00
11085;BME280;5596;46.826;8.650;2023-04-05T06:10:01;61776.25;;;-141.59;100.00
11085;BME280;5596;46.826;8.650;2023-04-05T06:12:28;61776.25;;;-141.59;100.00
11085;BME280;5596;46.826;8.650;2023-04-05T06:14:54;61776.25;;;-141.59;100.00
11085;BME280;5596;46.826;8.650;2023-04-05T06:17:23;61776.25;;;-141.59;100.00
11085;BME280;5596;46.826;8.650;2023-04-05T06:19:50;61776.25;;;-141.59;100.00
11085;BME280;5596;46.826;8.650;2023-04-05T06:22:17;61776.25;;;-141.59;100.00
11085;BME280;5596;46.826;8.650;2023-04-05T06:24:44;61776.25;;;-141.59;100.00
11085;BME280;5596;46.826;8.650;2023-04-05T06:27:10;61776.25;;;-141.59;100.00
11085;BME280;5596;46.826;8.650;2023-04-05T06:29:38;61776.25;;;-141.59;100.00
11085;BME280;5596;46.826;8.650;2023-04-05T06:32:05;61776.25;;;-141.59;100.00
11085;BME280;5596;46.826;8.650;2023-04-05T06:34:33;61776.25;;;-141.59;100.00
11085;BME280;5596;46.826;8.650;2023-04-05T06:37:00;61776.25;;;-141.59;100.00
11085;BME280;5596;46.826;8.650;2023-04-05T06:39:28;61776.25;;;-141.59;100.00
11085;BME280;5596;46.826;8.650;2023-04-05T06:41:54;61776.25;;;-141.59;100.00
11085;BME280;5596;46.826;8.650;2023-04-05T06:44:27;61776.25;;;-141.59;100.00
11085;BME280;5596;46.826;8.650;2023-04-05T06:46:54;61776.25;;;-141.59;100.00
11085;BME280;5596;46.826;8.650;2023-04-05T06:49:20;61776.25;;;-141.59;100.00
11085;BME280;5596;46.826;8.650;2023-04-05T06:51:49;61776.25;;;-141.59;100.00
11085;BME280;5596;46.826;8.650;2023-04-05T06:54:16;61776.25;;;-141.59;100.00
11085;BME280;5596;46.826;8.650;2023-04-05T06:56:45;61776.25;;;-141.59;100.00
11085;BME280;5596;46.826;8.650;2023-04-05T06:59:12;61776.25;;;-141.59;100.00
11085;BME280;5596;46.826;8.650;2023-04-05T07:01:39;61776.25;;;-141.59;100.00
11085;BME280;5596;46.826;8.650;2023-04-05T07:04:06;61776.25;;;-141.59;100.00
11085;BME280;5596;46.826;8.650;2023-04-05T07:06:33;61776.25;;;-141.59;100.00
11085;BME280;5596;46.826;8.650;2023-04-05T07:09:04;61776.25;;;-141.59;100.00
11085;BME280;5596;46.826;8.650;2023-04-05T07:11:32;61776.25;;;-141.59;100.00
11085;BME280;5596;46.826;8.650;2023-04-05T07:13:59;61776.25;;;-141.59;100.00
11085;BME280;5596;46.826;8.650;2023-04-05T07:16:25;61776.25;;;-141.59;100.00
11085;BME280;5596;46.826;8.650;2023-04-05T07:18:54;61776.25;;;-141.59;100.00
11085;BME280;5596;46.826;8.650;2023-04-05T07:21:21;61776.25;;;-141.59;100.00
11085;BME280;5596;46.826;8.650;2023-04-05T07:23:48;61776.25;;;-141.59;100.00
11085;BME280;5596;46.826;8.650;2023-04-05T07:26:19;61776.25;;;-141.59;100.00
11085;BME280;5596;46.826;8.650;2023-04-05T07:28:46;61776.25;;;-141.59;100.00
11085;BME280;5596;46.826;8.650;2023-04-05T07:31:13;61776.25;;;-141.59;100.00
11085;BME280;5596;46.826;8.650;2023-04-05T07:33:40;61776.25;;;-141.59;100.00
11085;BME280;5596;46.826;8.650;2023-04-05T07:36:07;61776.25;;;-141.59;100.00
11085;BME280;5596;46.826;8.650;2023-04-05T07:38:34;61776.25;;;-141.59;100.00
11085;BME280;5596;46.826;8.650;2023-04-05T07:41:01;61776.25;;;-141.59;100.00
11085;BME280;5596;46.826;8.650;2023-04-05T07:43:29;61776.25;;;-141.59;100.00
11085;BME280;5596;46.826;8.650;2023-04-05T07:46:00;61776.25;;;-141.59;100.00
11085;BME280;5596;46.826;8.650;2023-04-05T07:48:28;61776.25;;;-141.59;100.00
11085;BME280;5596;46.826;8.650;2023-04-05T07:50:54;61776.25;;;-141.59;100.00
11085;BME280;5596;46.826;8.650;2023-04-05T07:53:22;61776.25;;;-141.59;100.00
11085;BME280;5596;46.826;8.650;2023-04-05T07:55:49;61776.25;;;-141.59;100.00
11085;BME280;5596;46.826;8.650;2023-04-05T07:58:16;61776.25;;;-141.59;100.00
11085;BME280;5596;46.826;8.650;2023-04-05T08:00:44;61776.25;;;-141.59;100.00
11085;BME280;5596;46.826;8.650;2023-04-05T08:03:11;61776.25;;;-141.59;100.00
11085;BME280;5596;46.826;8.650;2023-04-05T08:05:38;61776.25;;;-141.59;100.00
11085;BME280;5596;46.826;8.650;2023-04-05T08:08:05;61776.25;;;-141.59;100.00
11085;BME280;5596;46.826;8.650;2023-04-05T08:10:36;61776.25;;;-141.59;100.00
11085;BME280;5596;46.826;8.650;2023-04-05T08:13:04;61776.25;;;-141.59;100.00
11085;BME280;5596;46.826;8.650;2023-04-05T08:15:32;61776.25;;;-141.59;100.00
11085;BME280;5596;46.826;8.650;2023-04-05T08:18:01;61776.25;;;-141.59;100.00
11085;BME280;5596;46.826;8.650;2023-04-05T08:20:28;61776.25;;;-141.59;100.00
11085;BME280;5596;46.826;8.650;2023-04-05T08:22:55;61776.25;;;-141.59;100.00
11085;BME280;5596;46.826;8.650;2023-04-05T08:25:21;61776.25;;;-141.59;100.00
11085;BME280;5596;46.826;8.650;2023-04-05T08:27:48;61776.25;;;-141.59;100.00
11085;BME280;5596;46.826;8.650;2023-04-05T08:30:15;61776.25;;;-141.59;100.00
11085;BME280;5596;46.826;8.650;2023-04-05T08:32:44;61776.25;;;-141.59;100.00
11085;BME280;5596;46.826;8.650;2023-04-05T08:35:12;61776.25;;;-141.59;100.00
11085;BME280;5596;46.826;8.650;2023-04-05T08:37:39;61776.25;;;-141.59;100.00
11085;BME280;5596;46.826;8.650;2023-04-05T08:40:06;61776.25;;;-141.59;100.00
11085;BME280;5596;46.826;8.650;2023-04-05T08:42:35;61776.25;;;-141.59;100.00
11085;BME280;5596;46.826;8.650;2023-04-05T08:45:02;61776.25;;;-141.59;100.00
11085;BME280;5596;46.826;8.650;2023-04-05T08:47:29;61776.25;;;-141.59;100.00
11085;BME280;5596;46.826;8.650;2023-04-05T08:49:56;61776.25;;;-141.59;100.00
11085;BME280;5596;46.826;8.650;2023-04-05T08:52:25;61776.25;;;-141.59;100.00
11085;BME280;5596;46.826;8.650;2023-04-05T08:54:52;61776.25;;;-141.59;100.00
11085;BME280;5596;46.826;8.650;2023-04-05T08:57:21;61776.25;;;-141.59;100.00
11085;BME280;5596;46.826;8.650;2023-04-05T08:59:51;61776.25;;;-141.59;100.00
11085;BME280;5596;46.826;8.650;2023-04-05T09:02:18;61776.25;;;-141.59;100.00
11085;BME280;5596;46.826;8.650;2023-04-05T09:04:48;61776.25;;;-141.59;100.00
11085;BME280;5596;46.826;8.650;2023-04-05T09:07:16;61776.25;;;-141.59;100.00
11085;BME280;5596;46.826;8.650;2023-04-05T09:09:47;61776.25;;;-141.59;100.00
11085;BME280;5596;46.826;8.650;2023-04-05T09:12:15;61776.25;;;-141.59;100.00
11085;BME280;5596;46.826;8.650;2023-04-05T09:14:42;61776.25;;;-141.59;100.00
11085;BME280;5596;46.826;8.650;2023-04-05T09:17:10;61776.25;;;-141.59;100.00
11085;BME280;5596;46.826;8.650;2023-04-05T09:19:37;61776.25;;;-141.59;100.00
11085;BME280;5596;46.826;8.650;2023-04-05T09:22:04;61776.25;;;-141.59;100.00
11085;BME280;5596;46.826;8.650;2023-04-05T09:24:38;61776.25;;;-141.59;100.00
11085;BME280;5596;46.826;8.650;2023-04-05T09:27:08;61776.25;;;-141.59;100.00
11085;BME280;5596;46.826;8.650;2023-04-05T09:29:35;61776.25;;;-141.59;100.00
11085;BME280;5596;46.826;8.650;2023-04-05T09:32:04;61776.25;;;-141.59;100.00
11085;BME280;5596;46.826;8.650;2023-04-05T09:34:32;61776.25;;;-141.59;100.00
11085;BME280;5596;46.826;8.650;2023-04-05T09:37:01;61776.25;;;-141.59;100.00
11085;BME280;5596;46.826;8.650;2023-04-05T09:39:28;61776.25;;;-141.59;100.00
11085;BME280;5596;46.826;8.650;2023-04-05T09:44:54;61776.25;;;-141.59;100.00
11085;BME280;5596;46.826;8.650;2023-04-05T09:47:23;61776.25;;;-141.59;100.00
11085;BME280;5596;46.826;8.650;2023-04-05T09:49:55;61776.25;;;-141.59;100.00
11085;BME280;5596;46.826;8.650;2023-04-05T09:52:22;61776.25;;;-141.59;100.00
11085;BME280;5596;46.826;8.650;2023-04-05T09:54:50;61776.25;;;-141.59;100.00
11085;BME280;5596;46.826;8.650;2023-04-05T09:57:17;61776.25;;;-141.59;100.00
11085;BME280;5596;46.826;8.650;2023-04-05T09:59:44;61776.25;;;-141.59;100.00
11085;BME280;5596;46.826;8.650;2023-04-05T10:02:13;61776.25;;;-141.59;100.00
11085;BME280;5596;46.826;8.650;2023-04-05T10:04:41;61776.25;;;-141.59;100.00
11085;BME280;5596;46.826;8.650;2023-04-05T10:07:09;61776.25;;;-141.59;100.00
11085;BME280;5596;46.826;8.650;2023-04-05T10:09:37;61776.25;;;-141.59;100.00
11085;BME280;5596;46.826;8.650;2023-04-05T10:12:05;61776.25;;;-141.59;100.00
11085;BME280;5596;46.826;8.650;2023-04-05T10:14:33;61776.25;;;-141.59;100.00
11085;BME280;5596;46.826;8.650;2023-04-05T10:17:03;61776.25;;;-141.59;100.00
11085;BME280;5596;46.826;8.650;2023-04-05T10:19:39;61776.25;;;-141.59;100.00
11085;BME280;5596;46.826;8.650;2023-04-05T10:22:13;61776.25;;;-141.59;100.00
11085;BME280;5596;46.826;8.650;2023-04-05T10:24:44;61776.25;;;-141.59;100.00
11085;BME280;5596;46.826;8.650;2023-04-05T10:27:13;61776.25;;;-141.59;100.00
11085;BME280;5596;46.826;8.650;2023-04-05T10:29:42;61776.25;;;-141.59;100.00
11085;BME280;5596;46.826;8.650;2023-04-05T10:32:11;61776.25;;;-141.59;100.00
11085;BME280;5596;46.826;8.650;2023-04-05T10:34:43;61776.25;;;-141.59;100.00
11085;BME280;5596;46.826;8.650;2023-04-05T10:37:14;61776.25;;;-141.59;100.00
11085;BME280;5596;46.826;8.650;2023-04-05T10:39:47;61776.25;;;-141.59;100.00
11085;BME280;5596;46.826;8.650;2023-04-05T10:42:17;61776.25;;;-141.59;100.00
11085;BME280;5596;46.826;8.650;2023-04-05T10:44:47;61776.25;;;-141.59;100.00
11085;BME280;5596;46.826;8.650;2023-04-05T10:47:15;61776.25;;;-141.59;100.00
11085;BME280;5596;46.826;8.650;2023-04-05T10:49:46;61776.25;;;-141.59;100.00
11085;BME280;5596;46.826;8.650;2023-04-05T10:52:14;61776.25;;;-141.59;100.00
11085;BME280;5596;46.826;8.650;2023-04-05T10:54:42;61776.25;;;-141.59;100.00
11085;BME280;5596;46.826;8.650;2023-04-05T10:57:10;61776.25;;;-141.59;100.00
11085;BME280;5596;46.826;8.650;2023-04-05T10:59:39;61776.25;;;-141.59;100.00
11085;BME280;5596;46.826;8.650;2023-04-05T11:02:07;61776.25;;;-141.59;100.00
11085;BME280;5596;46.826;8.650;2023-04-05T11:04:34;61776.25;;;-141.59;100.00
11085;BME280;5596;46.826;8.650;2023-04-05T11:07:12;61776.25;;;-141.59;100.00
11085;BME280;5596;46.826;8.650;2023-04-05T11:09:49;61776.25;;;-141.59;100.00
11085;BME280;5596;46.826;8.650;2023-04-05T11:12:16;61776.25;;;-141.59;100.00
11085;BME280;5596;46.826;8.650;2023-04-05T11:14:43;61776.25;;;-141.59;100.00
11085;BME280;5596;46.826;8.650;2023-04-05T11:17:22;61776.25;;;-141.59;100.00
11085;BME280;5596;46.826;8.650;2023-04-05T11:19:49;61776.25;;;-141.59;100.00
11085;BME280;5596;46.826;8.650;2023-04-05T11:22:26;61776.25;;;-141.59;100.00
11085;BME280;5596;46.826;8.650;2023-04-05T11:24:54;61776.25;;;-141.59;100.00
11085;BME280;5596;46.826;8.650;2023-04-05T11:27:25;61776.25;;;-141.59;100.00
11085;BME280;5596;46.826;8.650;2023-04-05T11:29:53;61776.25;;;-141.59;100.00
11085;BME280;5596;46.826;8.650;2023-04-05T11:32:21;61776.25;;;-141.59;100.00
11085;BME280;5596;46.826;8.650;2023-04-05T11:34:57;61776.25;;;-141.59;100.00
11085;BME280;5596;46.826;8.650;2023-04-05T11:40:24;61776.25;;;-141.59;100.00
11085;BME280;5596;46.826;8.650;2023-04-05T11:43:01;61776.25;;;-141.59;100.00
11085;BME280;5596;46.826;8.650;2023-04-05T11:45:30;61776.25;;;-141.59;100.00
11085;BME280;5596;46.826;8.650;2023-04-05T11:47:58;61776.25;;;-141.59;100.00
11085;BME280;5596;46.826;8.650;2023-04-05T11:50:25;61776.25;;;-141.59;100.00
11085;BME280;5596;46.826;8.650;2023-04-05T11:53:11;61776.25;;;-141.59;100.00
11085;BME280;5596;46.826;8.650;2023-04-05T11:55:42;61776.25;;;-141.59;100.00
11085;BME280;5596;46.826;8.650;2023-04-05T11:58:13;61776.25;;;-141.59;100.00
11085;BME280;5596;46.826;8.650;2023-04-05T12:00:40;61776.25;;;-141.59;100.00
11085;BME280;5596;46.826;8.650;2023-04-05T12:03:10;61776.25;;;-141.59;100.00
11085;BME280;5596;46.826;8.650;2023-04-05T12:05:46;61776.25;;;-141.59;100.00
11085;BME280;5596;46.826;8.650;2023-04-05T12:08:13;61776.25;;;-141.59;100.00
11085;BME280;5596;46.826;8.650;2023-04-05T12:10:41;61776.25;;;-141.59;100.00
11085;BME280;5596;46.826;8.650;2023-04-05T12:13:08;61776.25;;;-141.59;100.00
11085;BME280;5596;46.826;8.650;2023-04-05T12:15:36;61776.25;;;-141.59;100.00
11085;BME280;5596;46.826;8.650;2023-04-05T12:18:03;61776.25;;;-141.59;100.00
11085;BME280;5596;46.826;8.650;2023-04-05T12:20:32;61776.25;;;-141.59;100.00
11085;BME280;5596;46.826;8.650;2023-04-05T12:22:59;61776.25;;;-141.59;100.00
11085;BME280;5596;46.826;8.650;2023-04-05T12:25:26;61776.25;;;-141.59;100.00
11085;BME280;5596;46.826;8.650;2023-04-05T12:27:55;61776.25;;;-141.59;100.00
11085;BME280;5596;46.826;8.650;2023-04-05T12:30:23;61776.25;;;-141.59;100.00
11085;BME280;5596;46.826;8.650;2023-04-05T12:32:50;61776.25;;;-141.59;100.00
11085;BME280;5596;46.826;8.650;2023-04-05T12:35:18;61776.25;;;-141.59;100.00
11085;BME280;5596;46.826;8.650;2023-04-05T12:37:45;61776.25;;;-141.59;100.00
11085;BME280;5596;46.826;8.650;2023-04-05T12:40:12;61776.25;;;-141.59;100.00
11085;BME280;5596;46.826;8.650;2023-04-05T12:42:39;61776.25;;;-141.59;100.00
11085;BME280;5596;46.826;8.650;2023-04-05T12:45:10;61776.25;;;-141.59;100.00
11085;BME280;5596;46.826;8.650;2023-04-05T12:47:47;61776.25;;;-141.59;100.00
11085;BME280;5596;46.826;8.650;2023-04-05T12:50:15;61776.25;;;-141.59;100.00
11085;BME280;5596;46.826;8.650;2023-04-05T12:52:52;61776.25;;;-141.59;100.00
11085;BME280;5596;46.826;8.650;2023-04-05T12:55:19;61776.25;;;-141.59;100.00
11085;BME280;5596;46.826;8.650;2023-04-05T12:57:50;61776.25;;;-141.59;100.00
11085;BME280;5596;46.826;8.650;2023-04-05T13:00:19;61776.25;;;-141.59;100.00
11085;BME280;5596;46.826;8.650;2023-04-05T13:02:49;61776.25;;;-141.59;100.00
11085;BME280;5596;46.826;8.650;2023-04-05T13:05:18;61776.25;;;-141.59;100.00